Terminal Aerodrome Forecast
Issued by NWS

Home | Current Version | Previous Version | Text Only | Print | Product List | Glossary On
Versions: 1 2 3 4 5 6 7 8 9 10 11 12 13 14 15 16 17 18 19 20 21 22 23 24 25 26
068
FTUS43 KGRB 270520
TAFAUW
TAF
KAUW 270520Z 2706/2806 VRB03KT P6SM BKN250
      TEMPO 2708/2712 3SM BR BKN008
     FM271200 11005KT 6SM BR SCT012 OVC025
     FM271700 12006KT P6SM -SHRA SCT020 BKN050
      TEMPO 2718/2722 3SM TSRA BKN020CB
     FM272200 14005KT 5SM -SHRA SCT012 BKN025
      TEMPO 2802/2806 2SM -SHRA BR BKN012=

USA.gov is the U.S. government's official web portal to all federal, state and local government web resources and services.